sensor_id;sensor_type;location;lat;lon;timestamp;pressure;altitude;pressure_sealevel;temperature;humidity
21877;BME280;11103;43.788;23.710;2022-11-23T00:01:24;129745.50;;;7.94;100.00
21877;BME280;11103;43.788;23.710;2022-11-23T00:03:52;127135.78;;;7.92;100.00
21877;BME280;11103;43.788;23.710;2022-11-23T00:06:19;128241.53;;;7.94;100.00
21877;BME280;11103;43.788;23.710;2022-11-23T00:08:46;129718.38;;;7.90;100.00
21877;BME280;11103;43.788;23.710;2022-11-23T00:11:12;130626.97;;;7.86;100.00
21877;BME280;11103;43.788;23.710;2022-11-23T00:13:38;129498.63;;;7.90;100.00
21877;BME280;11103;43.788;23.710;2022-11-23T00:16:31;129812.75;;;7.81;100.00
21877;BME280;11103;43.788;23.710;2022-11-23T00:18:58;129074.50;;;7.93;100.00
21877;BME280;11103;43.788;23.710;2022-11-23T00:21:25;129991.94;;;7.82;100.00
21877;BME280;11103;43.788;23.710;2022-11-23T00:23:52;129745.13;;;7.95;100.00
21877;BME280;11103;43.788;23.710;2022-11-23T00:26:18;128801.66;;;7.92;100.00
21877;BME280;11103;43.788;23.710;2022-11-23T00:28:44;129010.53;;;7.94;100.00
21877;BME280;11103;43.788;23.710;2022-11-23T00:31:12;129887.06;;;7.77;100.00
21877;BME280;11103;43.788;23.710;2022-11-23T00:33:38;128886.06;;;7.89;100.00
21877;BME280;11103;43.788;23.710;2022-11-23T00:36:09;128686.50;;;7.87;100.00
21877;BME280;11103;43.788;23.710;2022-11-23T00:38:36;130460.06;;;7.87;100.00
21877;BME280;11103;43.788;23.710;2022-11-23T00:41:09;132652.09;;;7.83;100.00
21877;BME280;11103;43.788;23.710;2022-11-23T00:43:35;131476.19;;;7.92;100.00
21877;BME280;11103;43.788;23.710;2022-11-23T00:46:24;131076.78;;;7.95;100.00
21877;BME280;11103;43.788;23.710;2022-11-23T00:48:52;133845.22;;;7.91;100.00
21877;BME280;11103;43.788;23.710;2022-11-23T00:51:21;131587.00;;;7.91;100.00
21877;BME280;11103;43.788;23.710;2022-11-23T00:53:48;132798.47;;;7.94;100.00
21877;BME280;11103;43.788;23.710;2022-11-23T00:56:14;131849.06;;;7.86;100.00
21877;BME280;11103;43.788;23.710;2022-11-23T00:58:40;133720.97;;;7.97;100.00
21877;BME280;11103;43.788;23.710;2022-11-23T01:01:08;132885.53;;;7.86;100.00
21877;BME280;11103;43.788;23.710;2022-11-23T01:03:34;131018.06;;;7.95;100.00
21877;BME280;11103;43.788;23.710;2022-11-23T01:06:02;133636.88;;;7.87;100.00
21877;BME280;11103;43.788;23.710;2022-11-23T01:08:28;129988.28;;;7.92;100.00
21877;BME280;11103;43.788;23.710;2022-11-23T01:10:58;128489.75;;;7.27;100.00
21877;BME280;11103;43.788;23.710;2022-11-23T01:13:23;132282.28;;;7.91;100.00
21877;BME280;11103;43.788;23.710;2022-11-23T01:15:49;130262.25;;;7.87;100.00
21877;BME280;11103;43.788;23.710;2022-11-23T01:18:15;131186.19;;;7.83;100.00
21877;BME280;11103;43.788;23.710;2022-11-23T01:20:40;130726.97;;;8.01;100.00
21877;BME280;11103;43.788;23.710;2022-11-23T01:23:06;132777.41;;;8.03;100.00
21877;BME280;11103;43.788;23.710;2022-11-23T01:25:31;132537.88;;;7.98;100.00
21877;BME280;11103;43.788;23.710;2022-11-23T01:27:57;131780.56;;;8.04;100.00
21877;BME280;11103;43.788;23.710;2022-11-23T01:30:22;134887.63;;;8.00;100.00
21877;BME280;11103;43.788;23.710;2022-11-23T01:32:47;132404.69;;;7.99;100.00
21877;BME280;11103;43.788;23.710;2022-11-23T01:35:13;129600.13;;;7.97;100.00
21877;BME280;11103;43.788;23.710;2022-11-23T01:37:38;127039.59;;;7.72;100.00
21877;BME280;11103;43.788;23.710;2022-11-23T01:40:04;126569.16;;;7.94;100.00
21877;BME280;11103;43.788;23.710;2022-11-23T01:42:52;125226.69;;;7.88;100.00
21877;BME280;11103;43.788;23.710;2022-11-23T01:46:00;123678.75;;;7.92;100.00
21877;BME280;11103;43.788;23.710;2022-11-23T01:48:32;124155.16;;;7.81;100.00
21877;BME280;11103;43.788;23.710;2022-11-23T01:51:02;123278.56;;;7.89;100.00
21877;BME280;11103;43.788;23.710;2022-11-23T01:53:30;121813.81;;;7.89;100.00
21877;BME280;11103;43.788;23.710;2022-11-23T01:56:01;121080.59;;;7.86;100.00
21877;BME280;11103;43.788;23.710;2022-11-23T01:58:31;121254.16;;;7.97;100.00
21877;BME280;11103;43.788;23.710;2022-11-23T02:00:57;122241.13;;;8.05;100.00
21877;BME280;11103;43.788;23.710;2022-11-23T02:03:23;123130.84;;;8.10;100.00
21877;BME280;11103;43.788;23.710;2022-11-23T02:05:55;126242.97;;;8.09;100.00
21877;BME280;11103;43.788;23.710;2022-11-23T02:08:25;126398.25;;;8.02;100.00
21877;BME280;11103;43.788;23.710;2022-11-23T02:10:51;127579.66;;;8.07;100.00
21877;BME280;11103;43.788;23.710;2022-11-23T02:13:17;131911.78;;;8.01;100.00
21877;BME280;11103;43.788;23.710;2022-11-23T02:15:43;130396.38;;;8.08;100.00
21877;BME280;11103;43.788;23.710;2022-11-23T02:18:14;130991.22;;;8.09;100.00
21877;BME280;11103;43.788;23.710;2022-11-23T02:20:42;130401.53;;;8.01;100.00
21877;BME280;11103;43.788;23.710;2022-11-23T02:26:01;126193.81;;;7.84;100.00
21877;BME280;11103;43.788;23.710;2022-11-23T02:28:33;122968.03;;;7.92;100.00
21877;BME280;11103;43.788;23.710;2022-11-23T02:31:00;123092.00;;;7.88;100.00
21877;BME280;11103;43.788;23.710;2022-11-23T02:33:28;123854.06;;;7.86;100.00
21877;BME280;11103;43.788;23.710;2022-11-23T02:35:59;126142.25;;;7.83;100.00
21877;BME280;11103;43.788;23.710;2022-11-23T02:38:30;126038.66;;;7.70;100.00
21877;BME280;11103;43.788;23.710;2022-11-23T02:40:57;124843.50;;;7.78;100.00
21877;BME280;11103;43.788;23.710;2022-11-23T02:43:22;122853.47;;;7.71;100.00
21877;BME280;11103;43.788;23.710;2022-11-23T02:46:06;123942.13;;;7.81;100.00
21877;BME280;11103;43.788;23.710;2022-11-23T02:48:32;123818.19;;;7.85;100.00
21877;BME280;11103;43.788;23.710;2022-11-23T02:50:57;124738.56;;;7.87;100.00
21877;BME280;11103;43.788;23.710;2022-11-23T02:53:22;126398.25;;;7.58;100.00
21877;BME280;11103;43.788;23.710;2022-11-23T02:55:48;123582.84;;;7.55;100.00
21877;BME280;11103;43.788;23.710;2022-11-23T02:58:13;121690.75;;;7.62;100.00
21877;BME280;11103;43.788;23.710;2022-11-23T03:00:39;119660.69;;;7.67;100.00
21877;BME280;11103;43.788;23.710;2022-11-23T03:03:05;117928.34;;;7.67;100.00
21877;BME280;11103;43.788;23.710;2022-11-23T03:05:30;118535.59;;;7.68;100.00
21877;BME280;11103;43.788;23.710;2022-11-23T03:07:56;118964.88;;;7.54;100.00
21877;BME280;11103;43.788;23.710;2022-11-23T03:10:21;122327.41;;;7.69;100.00
21877;BME280;11103;43.788;23.710;2022-11-23T03:12:47;121697.06;;;7.65;100.00
21877;BME280;11103;43.788;23.710;2022-11-23T03:15:12;122060.13;;;7.74;100.00
21877;BME280;11103;43.788;23.710;2022-11-23T03:17:38;122599.56;;;7.72;100.00
21877;BME280;11103;43.788;23.710;2022-11-23T03:20:04;120756.63;;;7.75;100.00
21877;BME280;11103;43.788;23.710;2022-11-23T03:22:29;120555.25;;;7.75;100.00
21877;BME280;11103;43.788;23.710;2022-11-23T03:24:55;121211.72;;;7.63;100.00
21877;BME280;11103;43.788;23.710;2022-11-23T03:27:21;121796.69;;;7.63;100.00
21877;BME280;11103;43.788;23.710;2022-11-23T03:29:47;121231.44;;;7.65;100.00
21877;BME280;11103;43.788;23.710;2022-11-23T03:32:12;119807.19;;;7.52;100.00
21877;BME280;11103;43.788;23.710;2022-11-23T03:34:38;120265.72;;;7.56;100.00
21877;BME280;11103;43.788;23.710;2022-11-23T03:37:03;120175.44;;;7.60;100.00
21877;BME280;11103;43.788;23.710;2022-11-23T03:39:28;119407.16;;;7.61;100.00
21877;BME280;11103;43.788;23.710;2022-11-23T03:41:54;120026.06;;;7.58;100.00
21877;BME280;11103;43.788;23.710;2022-11-23T03:44:20;120085.72;;;7.55;100.00
21877;BME280;11103;43.788;23.710;2022-11-23T03:46:45;120332.13;;;7.53;100.00
21877;BME280;11103;43.788;23.710;2022-11-23T03:49:11;119017.69;;;7.57;100.00
21877;BME280;11103;43.788;23.710;2022-11-23T03:51:36;119558.63;;;7.59;100.00
21877;BME280;11103;43.788;23.710;2022-11-23T03:54:02;119079.94;;;7.57;100.00
21877;BME280;11103;43.788;23.710;2022-11-23T03:56:27;119112.56;;;7.59;100.00
21877;BME280;11103;43.788;23.710;2022-11-23T03:58:53;119021.84;;;7.56;100.00
21877;BME280;11103;43.788;23.710;2022-11-23T04:01:18;117960.63;;;7.51;100.00
21877;BME280;11103;43.788;23.710;2022-11-23T04:03:44;117376.03;;;7.49;100.00
21877;BME280;11103;43.788;23.710;2022-11-23T04:06:09;116666.31;;;7.44;100.00
21877;BME280;11103;43.788;23.710;2022-11-23T04:08:35;116129.72;;;7.49;100.00
21877;BME280;11103;43.788;23.710;2022-11-23T04:11:00;117063.34;;;7.52;100.00
21877;BME280;11103;43.788;23.710;2022-11-23T04:13:25;117429.03;;;7.56;100.00
21877;BME280;11103;43.788;23.710;2022-11-23T04:15:51;118408.16;;;7.48;100.00
21877;BME280;11103;43.788;23.710;2022-11-23T04:18:16;119090.25;;;7.59;100.00
21877;BME280;11103;43.788;23.710;2022-11-23T04:20:42;119644.94;;;7.43;100.00
21877;BME280;11103;43.788;23.710;2022-11-23T04:23:07;120535.97;;;7.35;100.00
21877;BME280;11103;43.788;23.710;2022-11-23T04:25:33;121812.22;;;7.61;100.00
21877;BME280;11103;43.788;23.710;2022-11-23T04:27:58;122695.84;;;7.64;100.00
21877;BME280;11103;43.788;23.710;2022-11-23T04:30:24;122293.91;;;7.60;100.00
21877;BME280;11103;43.788;23.710;2022-11-23T04:32:50;121316.59;;;7.66;100.00
21877;BME280;11103;43.788;23.710;2022-11-23T04:35:15;120689.56;;;7.49;100.00
21877;BME280;11103;43.788;23.710;2022-11-23T04:37:41;120449.38;;;7.69;100.00
21877;BME280;11103;43.788;23.710;2022-11-23T04:40:06;119687.56;;;7.75;100.00
21877;BME280;11103;43.788;23.710;2022-11-23T04:42:32;120385.53;;;7.77;100.00
21877;BME280;11103;43.788;23.710;2022-11-23T04:44:57;121107.00;;;7.77;100.00
21877;BME280;11103;43.788;23.710;2022-11-23T04:47:24;120532.41;;;7.72;100.00
21877;BME280;11103;43.788;23.710;2022-11-23T04:49:49;120281.72;;;7.80;100.00
21877;BME280;11103;43.788;23.710;2022-11-23T04:52:15;118489.50;;;7.82;100.00
21877;BME280;11103;43.788;23.710;2022-11-23T04:54:40;118255.44;;;7.85;100.00
21877;BME280;11103;43.788;23.710;2022-11-23T04:57:06;117826.34;;;7.87;100.00
21877;BME280;11103;43.788;23.710;2022-11-23T04:59:31;119471.44;;;7.91;100.00
21877;BME280;11103;43.788;23.710;2022-11-23T05:01:57;120065.22;;;7.92;100.00
21877;BME280;11103;43.788;23.710;2022-11-23T05:04:22;120476.34;;;7.98;100.00
21877;BME280;11103;43.788;23.710;2022-11-23T05:06:47;121393.31;;;7.97;100.00
21877;BME280;11103;43.788;23.710;2022-11-23T05:09:13;122800.06;;;8.01;100.00
21877;BME280;11103;43.788;23.710;2022-11-23T05:11:38;123229.69;;;7.88;100.00
21877;BME280;11103;43.788;23.710;2022-11-23T05:14:04;123469.84;;;8.02;100.00
21877;BME280;11103;43.788;23.710;2022-11-23T05:16:29;123252.66;;;8.03;100.00
21877;BME280;11103;43.788;23.710;2022-11-23T05:18:55;122669.81;;;7.91;100.00
21877;BME280;11103;43.788;23.710;2022-11-23T05:21:20;124503.06;;;7.93;100.00
21877;BME280;11103;43.788;23.710;2022-11-23T05:23:46;122438.44;;;7.84;100.00
21877;BME280;11103;43.788;23.710;2022-11-23T05:26:11;119828.97;;;7.97;100.00
21877;BME280;11103;43.788;23.710;2022-11-23T05:28:37;119593.75;;;8.03;100.00
21877;BME280;11103;43.788;23.710;2022-11-23T05:31:03;122499.69;;;7.99;100.00
21877;BME280;11103;43.788;23.710;2022-11-23T05:33:29;121738.22;;;8.00;100.00
21877;BME280;11103;43.788;23.710;2022-11-23T05:35:54;119396.50;;;8.03;100.00
21877;BME280;11103;43.788;23.710;2022-11-23T05:38:19;123577.56;;;8.05;100.00
21877;BME280;11103;43.788;23.710;2022-11-23T05:40:45;127087.63;;;7.98;100.00
21877;BME280;11103;43.788;23.710;2022-11-23T05:43:11;124646.25;;;7.90;100.00
21877;BME280;11103;43.788;23.710;2022-11-23T05:45:37;122714.88;;;8.03;100.00
21877;BME280;11103;43.788;23.710;2022-11-23T05:48:02;123250.06;;;8.03;100.00
21877;BME280;11103;43.788;23.710;2022-11-23T05:50:28;123876.59;;;7.99;100.00
21877;BME280;11103;43.788;23.710;2022-11-23T05:52:57;123973.38;;;8.01;100.00
21877;BME280;11103;43.788;23.710;2022-11-23T05:55:24;123147.84;;;7.94;100.00
21877;BME280;11103;43.788;23.710;2022-11-23T05:57:50;126393.69;;;7.97;100.00
21877;BME280;11103;43.788;23.710;2022-11-23T06:00:16;123943.69;;;7.72;100.00
21877;BME280;11103;43.788;23.710;2022-11-23T06:02:42;121668.56;;;7.97;100.00
21877;BME280;11103;43.788;23.710;2022-11-23T06:05:08;121391.44;;;8.13;100.00
21877;BME280;11103;43.788;23.710;2022-11-23T06:07:34;122580.31;;;8.18;100.00
21877;BME280;11103;43.788;23.710;2022-11-23T06:10:00;123285.34;;;8.13;100.00
21877;BME280;11103;43.788;23.710;2022-11-23T06:12:27;126783.00;;;8.21;100.00
21877;BME280;11103;43.788;23.710;2022-11-23T06:14:53;126781.00;;;8.16;100.00
21877;BME280;11103;43.788;23.710;2022-11-23T06:17:18;125866.97;;;8.16;100.00
21877;BME280;11103;43.788;23.710;2022-11-23T06:19:44;124898.94;;;8.20;100.00
21877;BME280;11103;43.788;23.710;2022-11-23T06:22:09;126104.84;;;8.47;100.00
21877;BME280;11103;43.788;23.710;2022-11-23T06:24:35;128743.19;;;8.53;100.00
21877;BME280;11103;43.788;23.710;2022-11-23T06:27:00;131184.75;;;8.56;100.00
21877;BME280;11103;43.788;23.710;2022-11-23T06:29:27;134128.31;;;8.38;100.00
21877;BME280;11103;43.788;23.710;2022-11-23T06:31:52;132674.69;;;8.55;100.00
21877;BME280;11103;43.788;23.710;2022-11-23T06:34:18;133331.88;;;8.51;100.00
21877;BME280;11103;43.788;23.710;2022-11-23T06:36:44;135720.63;;;8.63;100.00
21877;BME280;11103;43.788;23.710;2022-11-23T06:39:09;135668.41;;;8.63;100.00
21877;BME280;11103;43.788;23.710;2022-11-23T06:41:35;136936.69;;;8.69;100.00
21877;BME280;11103;43.788;23.710;2022-11-23T06:44:00;136902.19;;;8.61;100.00
21877;BME280;11103;43.788;23.710;2022-11-23T06:46:26;137483.09;;;8.77;100.00
21877;BME280;11103;43.788;23.710;2022-11-23T06:48:51;139367.88;;;8.66;100.00
21877;BME280;11103;43.788;23.710;2022-11-23T06:54:39;141280.63;;;8.74;100.00
21877;BME280;11103;43.788;23.710;2022-11-23T06:57:08;140690.28;;;8.85;100.00
21877;BME280;11103;43.788;23.710;2022-11-23T06:59:33;140405.91;;;8.89;100.00
21877;BME280;11103;43.788;23.710;2022-11-23T07:01:59;141430.69;;;8.97;100.00
21877;BME280;11103;43.788;23.710;2022-11-23T07:04:24;142503.31;;;8.89;100.00
21877;BME280;11103;43.788;23.710;2022-11-23T07:06:49;144153.47;;;8.96;100.00
21877;BME280;11103;43.788;23.710;2022-11-23T07:09:15;144658.28;;;8.99;100.00
21877;BME280;11103;43.788;23.710;2022-11-23T07:11:41;146084.53;;;8.94;100.00
21877;BME280;11103;43.788;23.710;2022-11-23T07:14:06;146263.88;;;8.95;100.00
21877;BME280;11103;43.788;23.710;2022-11-23T07:16:32;146465.94;;;9.05;100.00
21877;BME280;11103;43.788;23.710;2022-11-23T07:18:57;148302.47;;;8.89;100.00
21877;BME280;11103;43.788;23.710;2022-11-23T07:21:23;148026.41;;;8.84;100.00
21877;BME280;11103;43.788;23.710;2022-11-23T07:23:48;147156.00;;;8.92;100.00
21877;BME280;11103;43.788;23.710;2022-11-23T07:26:13;146469.31;;;8.70;100.00
21877;BME280;11103;43.788;23.710;2022-11-23T07:28:39;147131.97;;;8.83;100.00
21877;BME280;11103;43.788;23.710;2022-11-23T07:31:04;146265.44;;;8.80;100.00
21877;BME280;11103;43.788;23.710;2022-11-23T07:33:30;147549.63;;;8.68;100.00
21877;BME280;11103;43.788;23.710;2022-11-23T07:35:55;147366.94;;;8.76;100.00
21877;BME280;11103;43.788;23.710;2022-11-23T07:38:24;147604.22;;;8.89;100.00
21877;BME280;11103;43.788;23.710;2022-11-23T07:40:49;148523.31;;;8.78;100.00
21877;BME280;11103;43.788;23.710;2022-11-23T07:43:15;146971.47;;;8.76;100.00
21877;BME280;11103;43.788;23.710;2022-11-23T07:45:41;148548.25;;;8.77;100.00
21877;BME280;11103;43.788;23.710;2022-11-23T07:48:08;148053.13;;;8.95;100.00
21877;BME280;11103;43.788;23.710;2022-11-23T07:50:35;148590.09;;;8.78;100.00
21877;BME280;11103;43.788;23.710;2022-11-23T07:53:05;148571.31;;;9.05;100.00
21877;BME280;11103;43.788;23.710;2022-11-23T07:55:31;148622.06;;;8.91;100.00
21877;BME280;11103;43.788;23.710;2022-11-23T07:57:57;148657.81;;;9.05;100.00
21877;BME280;11103;43.788;23.710;2022-11-23T08:00:25;148618.19;;;8.89;100.00
21877;BME280;11103;43.788;23.710;2022-11-23T08:02:51;148645.03;;;9.00;100.00
21877;BME280;11103;43.788;23.710;2022-11-23T08:05:17;148662.97;;;9.07;100.00
21877;BME280;11103;43.788;23.710;2022-11-23T08:07:43;148665.47;;;9.08;100.00
21877;BME280;11103;43.788;23.710;2022-11-23T08:10:11;148645.03;;;9.00;100.00
21877;BME280;11103;43.788;23.710;2022-11-23T08:12:37;148675.75;;;9.12;100.00
21877;BME280;11103;43.788;23.710;2022-11-23T08:15:02;148675.75;;;9.12;100.00
21877;BME280;11103;43.788;23.710;2022-11-23T08:17:28;148688.50;;;9.17;100.00
21877;BME280;11103;43.788;23.710;2022-11-23T08:19:53;148671.88;;;9.11;100.00
21877;BME280;11103;43.788;23.710;2022-11-23T08:22:19;148616.91;;;8.89;100.00
21877;BME280;11103;43.788;23.710;2022-11-23T08:24:44;148671.88;;;9.11;100.00
21877;BME280;11103;43.788;23.710;2022-11-23T08:27:10;148693.63;;;9.19;100.00
21877;BME280;11103;43.788;23.710;2022-11-23T08:29:36;148697.47;;;9.21;100.00
21877;BME280;11103;43.788;23.710;2022-11-23T08:32:02;148691.09;;;9.18;100.00
21877;BME280;11103;43.788;23.710;2022-11-23T08:34:27;148685.94;;;9.16;100.00
21877;BME280;11103;43.788;23.710;2022-11-23T08:36:52;148670.63;;;9.10;100.00
21877;BME280;11103;43.788;23.710;2022-11-23T08:39:18;148606.72;;;8.85;100.00
21877;BME280;11103;43.788;23.710;2022-11-23T08:41:44;148669.34;;;9.10;100.00
21877;BME280;11103;43.788;23.710;2022-11-23T08:44:09;148673.16;;;9.11;100.00
21877;BME280;11103;43.788;23.710;2022-11-23T08:46:36;148693.63;;;9.19;100.00
21877;BME280;11103;43.788;23.710;2022-11-23T08:49:02;148717.91;;;9.29;100.00
21877;BME280;11103;43.788;23.710;2022-11-23T08:51:28;148735.81;;;9.36;100.00
21877;BME280;11103;43.788;23.710;2022-11-23T08:53:53;148739.66;;;9.37;100.00
21877;BME280;11103;43.788;23.710;2022-11-23T08:56:19;148752.44;;;9.42;100.00
21877;BME280;11103;43.788;23.710;2022-11-23T08:58:45;148757.53;;;9.44;100.00
21877;BME280;11103;43.788;23.710;2022-11-23T09:01:12;148739.66;;;9.37;100.00
21877;BME280;11103;43.788;23.710;2022-11-23T09:03:38;148744.78;;;9.39;100.00
21877;BME280;11103;43.788;23.710;2022-11-23T09:06:04;148770.31;;;9.49;100.00
21877;BME280;11103;43.788;23.710;2022-11-23T09:08:29;148761.34;;;9.46;100.00
21877;BME280;11103;43.788;23.710;2022-11-23T09:11:03;148770.31;;;9.49;100.00
21877;BME280;11103;43.788;23.710;2022-11-23T09:13:29;148772.91;;;9.50;100.00
21877;BME280;11103;43.788;23.710;2022-11-23T09:15:58;148739.66;;;9.37;100.00
21877;BME280;11103;43.788;23.710;2022-11-23T09:18:25;148778.00;;;9.52;100.00
21877;BME280;11103;43.788;23.710;2022-11-23T09:20:51;148749.88;;;9.41;100.00
21877;BME280;11103;43.788;23.710;2022-11-23T09:23:16;148816.34;;;9.68;100.00
21877;BME280;11103;43.788;23.710;2022-11-23T09:25:42;148818.91;;;9.69;100.00
21877;BME280;11103;43.788;23.710;2022-11-23T09:28:11;148824.03;;;9.71;100.00
21877;BME280;11103;43.788;23.710;2022-11-23T09:30:42;148833.00;;;9.74;100.00
21877;BME280;11103;43.788;23.710;2022-11-23T09:33:07;148825.31;;;9.71;100.00
21877;BME280;11103;43.788;23.710;2022-11-23T09:35:34;148806.13;;;9.64;100.00
21877;BME280;11103;43.788;23.710;2022-11-23T09:37:59;148808.72;;;9.65;100.00
21877;BME280;11103;43.788;23.710;2022-11-23T09:40:30;148811.25;;;9.66;100.00
21877;BME280;11103;43.788;23.710;2022-11-23T09:42:59;148835.56;;;9.75;100.00
21877;BME280;11103;43.788;23.710;2022-11-23T09:45:41;148822.78;;;9.70;100.00
21877;BME280;11103;43.788;23.710;2022-11-23T09:54:02;148864.94;;;9.87;100.00
21877;BME280;11103;43.788;23.710;2022-11-23T09:56:31;148871.34;;;9.89;100.00
21877;BME280;11103;43.788;23.710;2022-11-23T09:59:00;148877.78;;;9.92;100.00
21877;BME280;11103;43.788;23.710;2022-11-23T10:01:26;148868.81;;;9.88;100.00
21877;BME280;11103;43.788;23.710;2022-11-23T10:03:52;148839.38;;;9.77;100.00
21877;BME280;11103;43.788;23.710;2022-11-23T10:06:22;148848.34;;;9.80;100.00
21877;BME280;11103;43.788;23.710;2022-11-23T10:22:59;148864.94;;;9.87;100.00
21877;BME280;11103;43.788;23.710;2022-11-23T10:25:29;148844.47;;;9.79;100.00
21877;BME280;11103;43.788;23.710;2022-11-23T10:27:59;148885.41;;;9.95;100.00
21877;BME280;11103;43.788;23.710;2022-11-23T10:30:26;148849.63;;;9.81;100.00
21877;BME280;11103;43.788;23.710;2022-11-23T10:35:41;148870.09;;;9.89;100.00
21877;BME280;11103;43.788;23.710;2022-11-23T10:38:13;148905.88;;;10.03;100.00
21877;BME280;11103;43.788;23.710;2022-11-23T10:40:43;148943.03;;;10.18;100.00
21877;BME280;11103;43.788;23.710;2022-11-23T10:43:21;148969.91;;;10.28;100.00
21877;BME280;11103;43.788;23.710;2022-11-23T10:45:47;148987.84;;;10.35;100.00
21877;BME280;11103;43.788;23.710;2022-11-23T10:48:32;148952.00;;;10.21;100.00
21877;BME280;11103;43.788;23.710;2022-11-23T10:51:15;148940.47;;;10.16;100.00
21877;BME280;11103;43.788;23.710;2022-11-23T10:53:42;148916.13;;;10.07;100.00
21877;BME280;11103;43.788;23.710;2022-11-23T10:56:11;148926.34;;;10.11;100.00
21877;BME280;11103;43.788;23.710;2022-11-23T10:58:43;148931.53;;;10.13;100.00
21877;BME280;11103;43.788;23.710;2022-11-23T11:01:15;148916.13;;;10.07;100.00
21877;BME280;11103;43.788;23.710;2022-11-23T11:03:41;148940.47;;;10.16;100.00
21877;BME280;11103;43.788;23.710;2022-11-23T11:06:07;148957.13;;;10.23;100.00
21877;BME280;11103;43.788;23.710;2022-11-23T11:08:48;148923.81;;;10.10;100.00
21877;BME280;11103;43.788;23.710;2022-11-23T11:11:25;148932.84;;;10.13;100.00
21877;BME280;11103;43.788;23.710;2022-11-23T11:16:34;148941.75;;;10.17;100.00
21877;BME280;11103;43.788;23.710;2022-11-23T11:21:55;148985.28;;;10.34;100.00
21877;BME280;11103;43.788;23.710;2022-11-23T11:24:31;148962.22;;;10.25;100.00
21877;BME280;11103;43.788;23.710;2022-11-23T11:27:03;148995.50;;;10.38;100.00
21877;BME280;11103;43.788;23.710;2022-11-23T11:29:32;148986.56;;;10.35;100.00
21877;BME280;11103;43.788;23.710;2022-11-23T11:34:30;148984.00;;;10.34;100.00
21877;BME280;11103;43.788;23.710;2022-11-23T11:39:44;148957.13;;;10.23;100.00
21877;BME280;11103;43.788;23.710;2022-11-23T11:42:29;148949.44;;;10.20;100.00
21877;BME280;11103;43.788;23.710;2022-11-23T11:44:58;148928.91;;;10.12;100.00
21877;BME280;11103;43.788;23.710;2022-11-23T11:47:33;148940.47;;;10.16;100.00
21877;BME280;11103;43.788;23.710;2022-11-23T11:50:14;148895.66;;;9.99;100.00
21877;BME280;11103;43.788;23.710;2022-11-23T11:52:44;148885.41;;;9.95;100.00
21877;BME280;11103;43.788;23.710;2022-11-23T11:58:14;148911.03;;;10.05;100.00
21877;BME280;11103;43.788;23.710;2022-11-23T12:00:41;148905.88;;;10.03;100.00
21877;BME280;11103;43.788;23.710;2022-11-23T12:05:51;148900.78;;;10.01;100.00
21877;BME280;11103;43.788;23.710;2022-11-23T12:08:47;148913.56;;;10.06;100.00
21877;BME280;11103;43.788;23.710;2022-11-23T12:11:11;148903.34;;;10.02;100.00
21877;BME280;11103;43.788;23.710;2022-11-23T12:13:40;148904.63;;;10.02;100.00
21877;BME280;11103;43.788;23.710;2022-11-23T12:52:23;148747.28;;;9.40;100.00
21877;BME280;11103;43.788;23.710;2022-11-23T12:57:45;148756.25;;;9.44;100.00
21877;BME280;11103;43.788;23.710;2022-11-23T13:00:14;148808.72;;;9.65;100.00
21877;BME280;11103;43.788;23.710;2022-11-23T13:11:28;148870.09;;;9.89;100.00
21877;BME280;11103;43.788;23.710;2022-11-23T13:14:15;148803.56;;;9.63;100.00
21877;BME280;11103;43.788;23.710;2022-11-23T13:17:04;148835.56;;;9.75;100.00
21877;BME280;11103;43.788;23.710;2022-11-23T13:19:42;148751.16;;;9.42;100.00
21877;BME280;11103;43.788;23.710;2022-11-23T13:22:16;148721.75;;;9.30;100.00
21877;BME280;11103;43.788;23.710;2022-11-23T13:27:29;148711.53;;;9.26;100.00
21877;BME280;11103;43.788;23.710;2022-11-23T13:29:56;148733.22;;;9.35;100.00
21877;BME280;11103;43.788;23.710;2022-11-23T13:40:25;148766.50;;;9.48;100.00
21877;BME280;11103;43.788;23.710;2022-11-23T13:42:52;148771.59;;;9.50;100.00
21877;BME280;11103;43.788;23.710;2022-11-23T13:48:03;148702.56;;;9.23;100.00
21877;BME280;11103;43.788;23.710;2022-11-23T13:50:29;148738.38;;;9.37;100.00
21877;BME280;11103;43.788;23.710;2022-11-23T13:52:55;148719.22;;;9.29;100.00
21877;BME280;11103;43.788;23.710;2022-11-23T13:55:36;148739.66;;;9.37;100.00
21877;BME280;11103;43.788;23.710;2022-11-23T14:00:56;148717.91;;;9.29;100.00
21877;BME280;11103;43.788;23.710;2022-11-23T14:42:55;148624.59;;;8.92;100.00
21877;BME280;11103;43.788;23.710;2022-11-23T14:45:23;148622.06;;;8.91;100.00
21877;BME280;11103;43.788;23.710;2022-11-23T14:47:51;147209.47;;;8.80;100.00
21877;BME280;11103;43.788;23.710;2022-11-23T14:50:25;145802.34;;;8.77;100.00
21877;BME280;11103;43.788;23.710;2022-11-23T14:52:53;145173.81;;;8.68;100.00
21877;BME280;11103;43.788;23.710;2022-11-23T14:55:22;145188.78;;;8.64;100.00
21877;BME280;11103;43.788;23.710;2022-11-23T14:57:51;143353.41;;;8.73;100.00
21877;BME280;11103;43.788;23.710;2022-11-23T15:00:32;143591.66;;;8.72;100.00
21877;BME280;11103;43.788;23.710;2022-11-23T15:03:13;143106.94;;;8.77;100.00
21877;BME280;11103;43.788;23.710;2022-11-23T15:05:45;144129.91;;;8.77;100.00
21877;BME280;11103;43.788;23.710;2022-11-23T15:08:19;145055.72;;;8.82;100.00
21877;BME280;11103;43.788;23.710;2022-11-23T15:11:08;145349.97;;;8.95;100.00